Strongs, Michigan
Current Conditions -  °F | °C
As of 10:54 PM on Saturday 25 Oct 2014 (Local Time) from KERY Reporting Station
Clear Clear  
Wind Chill: 42°   Ceiling: Unl
Heat Index: 47°   Visibility: 10mi
Dew Point: 34°   Wind: 13mph
Humidity: 60%   Direction: 300°WNW
Pressure: 29.74"   Gusts: 23mph
Location:  46.36°N, 84.97°W
Report Text: KERY 260254Z AUTO 30011G20KT 10SM CLR 09/01 A2974 RMK AO2 T00860012
Loading
Personal Weather Stations






























Interactive Weather Map New forecast layout! Learn more

10-Day Weather Forecast

Advertisements
Track Severe Weather on mobile